sensor_id;sensor_type;location;lat;lon;timestamp;P1;durP1;ratioP1;P2;durP2;ratioP2
26102;SDS011;32703;49.182;9.042;2022-08-02T00:00:27;0.95;;;0.60;;
26102;SDS011;32703;49.182;9.042;2022-08-02T00:02:53;0.93;;;0.65;;
26102;SDS011;32703;49.182;9.042;2022-08-02T00:05:18;0.50;;;0.50;;
26102;SDS011;32703;49.182;9.042;2022-08-02T00:07:44;0.65;;;0.60;;
26102;SDS011;32703;49.182;9.042;2022-08-02T00:10:10;1.23;;;0.50;;
26102;SDS011;32703;49.182;9.042;2022-08-02T00:12:36;0.70;;;0.50;;
26102;SDS011;32703;49.182;9.042;2022-08-02T00:15:03;0.90;;;0.60;;
26102;SDS011;32703;49.182;9.042;2022-08-02T00:17:30;2.40;;;0.60;;
26102;SDS011;32703;49.182;9.042;2022-08-02T00:19:55;0.80;;;0.60;;
26102;SDS011;32703;49.182;9.042;2022-08-02T00:22:21;1.15;;;0.75;;
26102;SDS011;32703;49.182;9.042;2022-08-02T00:24:46;1.00;;;0.57;;
26102;SDS011;32703;49.182;9.042;2022-08-02T00:27:12;1.63;;;0.73;;
26102;SDS011;32703;49.182;9.042;2022-08-02T00:29:37;2.00;;;0.63;;
26102;SDS011;32703;49.182;9.042;2022-08-02T00:32:04;0.60;;;0.60;;
26102;SDS011;32703;49.182;9.042;2022-08-02T00:34:29;0.63;;;0.63;;
26102;SDS011;32703;49.182;9.042;2022-08-02T00:36:55;1.70;;;0.70;;
26102;SDS011;32703;49.182;9.042;2022-08-02T00:39:20;1.10;;;0.70;;
26102;SDS011;32703;49.182;9.042;2022-08-02T00:41:47;1.27;;;0.82;;
26102;SDS011;32703;49.182;9.042;2022-08-02T00:44:14;1.33;;;0.60;;
26102;SDS011;32703;49.182;9.042;2022-08-02T00:46:41;5.57;;;0.77;;
26102;SDS011;32703;49.182;9.042;2022-08-02T00:49:07;1.40;;;0.70;;
26102;SDS011;32703;49.182;9.042;2022-08-02T00:51:33;1.40;;;0.90;;
26102;SDS011;32703;49.182;9.042;2022-08-02T00:53:58;1.02;;;0.85;;
26102;SDS011;32703;49.182;9.042;2022-08-02T00:56:24;1.17;;;0.80;;
26102;SDS011;32703;49.182;9.042;2022-08-02T00:58:50;1.52;;;0.70;;
26102;SDS011;32703;49.182;9.042;2022-08-02T01:01:15;2.08;;;1.20;;
26102;SDS011;32703;49.182;9.042;2022-08-02T01:03:41;1.67;;;0.80;;
26102;SDS011;32703;49.182;9.042;2022-08-02T01:06:06;2.22;;;0.80;;
26102;SDS011;32703;49.182;9.042;2022-08-02T01:08:32;2.78;;;0.95;;
26102;SDS011;32703;49.182;9.042;2022-08-02T01:10:58;2.92;;;0.70;;
26102;SDS011;32703;49.182;9.042;2022-08-02T01:13:23;1.33;;;0.70;;
26102;SDS011;32703;49.182;9.042;2022-08-02T01:15:53;0.82;;;0.65;;
26102;SDS011;32703;49.182;9.042;2022-08-02T01:18:26;1.35;;;0.73;;
26102;SDS011;32703;49.182;9.042;2022-08-02T01:21:22;1.48;;;0.68;;
26102;SDS011;32703;49.182;9.042;2022-08-02T01:24:02;1.98;;;0.82;;
26102;SDS011;32703;49.182;9.042;2022-08-02T01:29:18;0.90;;;0.80;;
26102;SDS011;32703;49.182;9.042;2022-08-02T01:37:18;0.75;;;0.65;;
26102;SDS011;32703;49.182;9.042;2022-08-02T01:39:47;1.42;;;0.75;;
26102;SDS011;32703;49.182;9.042;2022-08-02T01:42:18;1.75;;;0.90;;
26102;SDS011;32703;49.182;9.042;2022-08-02T01:44:45;1.52;;;0.60;;
26102;SDS011;32703;49.182;9.042;2022-08-02T01:47:14;1.38;;;0.82;;
26102;SDS011;32703;49.182;9.042;2022-08-02T01:49:44;1.70;;;0.77;;
26102;SDS011;32703;49.182;9.042;2022-08-02T01:52:11;1.20;;;0.80;;
26102;SDS011;32703;49.182;9.042;2022-08-02T01:54:48;1.48;;;0.80;;
26102;SDS011;32703;49.182;9.042;2022-08-02T01:57:18;1.90;;;1.20;;
26102;SDS011;32703;49.182;9.042;2022-08-02T01:59:47;1.63;;;0.90;;
26102;SDS011;32703;49.182;9.042;2022-08-02T02:02:14;1.25;;;0.90;;
26102;SDS011;32703;49.182;9.042;2022-08-02T02:04:42;1.23;;;0.82;;
26102;SDS011;32703;49.182;9.042;2022-08-02T02:07:09;2.33;;;0.88;;
26102;SDS011;32703;49.182;9.042;2022-08-02T02:09:39;2.92;;;1.52;;
26102;SDS011;32703;49.182;9.042;2022-08-02T02:12:06;1.63;;;1.17;;
26102;SDS011;32703;49.182;9.042;2022-08-02T02:14:33;1.77;;;1.15;;
26102;SDS011;32703;49.182;9.042;2022-08-02T02:17:00;2.88;;;1.40;;
26102;SDS011;32703;49.182;9.042;2022-08-02T02:19:27;1.33;;;1.00;;
26102;SDS011;32703;49.182;9.042;2022-08-02T02:21:54;1.70;;;1.10;;
26102;SDS011;32703;49.182;9.042;2022-08-02T02:24:21;1.20;;;0.90;;
26102;SDS011;32703;49.182;9.042;2022-08-02T02:26:46;2.33;;;1.40;;
26102;SDS011;32703;49.182;9.042;2022-08-02T02:29:12;1.17;;;1.05;;
26102;SDS011;32703;49.182;9.042;2022-08-02T02:31:41;1.75;;;1.15;;
26102;SDS011;32703;49.182;9.042;2022-08-02T02:36:45;1.50;;;1.10;;
26102;SDS011;32703;49.182;9.042;2022-08-02T02:39:14;1.88;;;1.20;;
26102;SDS011;32703;49.182;9.042;2022-08-02T02:41:42;1.60;;;1.15;;
26102;SDS011;32703;49.182;9.042;2022-08-02T02:44:10;1.67;;;1.10;;
26102;SDS011;32703;49.182;9.042;2022-08-02T02:46:40;2.33;;;1.23;;
26102;SDS011;32703;49.182;9.042;2022-08-02T02:49:07;1.95;;;1.27;;
26102;SDS011;32703;49.182;9.042;2022-08-02T02:51:35;1.48;;;0.98;;
26102;SDS011;32703;49.182;9.042;2022-08-02T02:54:03;5.95;;;1.40;;
26102;SDS011;32703;49.182;9.042;2022-08-02T02:56:29;2.03;;;1.30;;
26102;SDS011;32703;49.182;9.042;2022-08-02T02:58:55;2.28;;;1.48;;
26102;SDS011;32703;49.182;9.042;2022-08-02T03:01:21;2.78;;;1.42;;
26102;SDS011;32703;49.182;9.042;2022-08-02T03:03:59;1.70;;;1.30;;
26102;SDS011;32703;49.182;9.042;2022-08-02T03:06:26;1.85;;;1.10;;
26102;SDS011;32703;49.182;9.042;2022-08-02T03:08:52;2.45;;;1.60;;
26102;SDS011;32703;49.182;9.042;2022-08-02T03:11:18;3.03;;;1.52;;
26102;SDS011;32703;49.182;9.042;2022-08-02T03:13:44;2.80;;;1.30;;
26102;SDS011;32703;49.182;9.042;2022-08-02T03:16:10;3.78;;;1.50;;
26102;SDS011;32703;49.182;9.042;2022-08-02T03:18:37;2.80;;;1.48;;
26102;SDS011;32703;49.182;9.042;2022-08-02T03:21:06;1.83;;;1.33;;
26102;SDS011;32703;49.182;9.042;2022-08-02T03:23:33;2.05;;;1.45;;
26102;SDS011;32703;49.182;9.042;2022-08-02T03:25:59;2.65;;;1.80;;
26102;SDS011;32703;49.182;9.042;2022-08-02T03:28:25;2.13;;;1.45;;
26102;SDS011;32703;49.182;9.042;2022-08-02T03:30:51;2.70;;;1.52;;
26102;SDS011;32703;49.182;9.042;2022-08-02T03:33:19;2.50;;;1.77;;
26102;SDS011;32703;49.182;9.042;2022-08-02T03:35:47;2.60;;;1.75;;
26102;SDS011;32703;49.182;9.042;2022-08-02T03:38:15;3.80;;;1.90;;
26102;SDS011;32703;49.182;9.042;2022-08-02T03:40:42;4.00;;;1.88;;
26102;SDS011;32703;49.182;9.042;2022-08-02T03:43:09;3.90;;;2.22;;
26102;SDS011;32703;49.182;9.042;2022-08-02T03:45:37;1.90;;;1.42;;
26102;SDS011;32703;49.182;9.042;2022-08-02T03:48:05;2.95;;;1.73;;
26102;SDS011;32703;49.182;9.042;2022-08-02T03:50:32;3.05;;;1.60;;
26102;SDS011;32703;49.182;9.042;2022-08-02T03:52:58;2.05;;;1.30;;
26102;SDS011;32703;49.182;9.042;2022-08-02T03:55:25;3.40;;;1.65;;
26102;SDS011;32703;49.182;9.042;2022-08-02T03:57:51;2.33;;;1.60;;
26102;SDS011;32703;49.182;9.042;2022-08-02T04:00:17;1.83;;;1.45;;
26102;SDS011;32703;49.182;9.042;2022-08-02T04:02:44;11.80;;;1.73;;
26102;SDS011;32703;49.182;9.042;2022-08-02T04:05:10;1.98;;;1.40;;
26102;SDS011;32703;49.182;9.042;2022-08-02T04:07:35;2.83;;;1.50;;
26102;SDS011;32703;49.182;9.042;2022-08-02T04:10:02;2.03;;;1.35;;
26102;SDS011;32703;49.182;9.042;2022-08-02T04:12:27;2.67;;;1.80;;
26102;SDS011;32703;49.182;9.042;2022-08-02T04:14:53;2.00;;;1.40;;
26102;SDS011;32703;49.182;9.042;2022-08-02T04:17:19;4.43;;;1.48;;
26102;SDS011;32703;49.182;9.042;2022-08-02T04:19:54;1.80;;;1.35;;
26102;SDS011;32703;49.182;9.042;2022-08-02T04:22:26;1.48;;;1.25;;
26102;SDS011;32703;49.182;9.042;2022-08-02T04:24:56;3.13;;;1.60;;
26102;SDS011;32703;49.182;9.042;2022-08-02T04:27:24;3.60;;;1.33;;
26102;SDS011;32703;49.182;9.042;2022-08-02T04:29:50;2.58;;;1.50;;
26102;SDS011;32703;49.182;9.042;2022-08-02T04:32:17;1.55;;;1.33;;
26102;SDS011;32703;49.182;9.042;2022-08-02T04:34:44;2.20;;;1.50;;
26102;SDS011;32703;49.182;9.042;2022-08-02T04:37:11;2.20;;;1.83;;
26102;SDS011;32703;49.182;9.042;2022-08-02T04:39:39;2.25;;;1.35;;
26102;SDS011;32703;49.182;9.042;2022-08-02T04:42:05;2.75;;;1.50;;
26102;SDS011;32703;49.182;9.042;2022-08-02T04:44:31;2.50;;;1.45;;
26102;SDS011;32703;49.182;9.042;2022-08-02T04:46:56;3.72;;;1.95;;
26102;SDS011;32703;49.182;9.042;2022-08-02T04:49:26;2.60;;;1.48;;
26102;SDS011;32703;49.182;9.042;2022-08-02T04:51:55;2.97;;;1.55;;
26102;SDS011;32703;49.182;9.042;2022-08-02T04:54:20;1.60;;;1.23;;
26102;SDS011;32703;49.182;9.042;2022-08-02T04:56:46;2.90;;;1.92;;
26102;SDS011;32703;49.182;9.042;2022-08-02T04:59:12;3.33;;;1.80;;
26102;SDS011;32703;49.182;9.042;2022-08-02T05:01:37;2.63;;;1.88;;
26102;SDS011;32703;49.182;9.042;2022-08-02T05:04:03;3.65;;;1.70;;
26102;SDS011;32703;49.182;9.042;2022-08-02T05:06:29;3.03;;;1.80;;
26102;SDS011;32703;49.182;9.042;2022-08-02T05:08:55;2.10;;;1.50;;
26102;SDS011;32703;49.182;9.042;2022-08-02T05:11:21;3.15;;;1.67;;
26102;SDS011;32703;49.182;9.042;2022-08-02T05:13:48;2.80;;;1.80;;
26102;SDS011;32703;49.182;9.042;2022-08-02T05:16:14;5.00;;;2.10;;
26102;SDS011;32703;49.182;9.042;2022-08-02T05:18:39;2.38;;;1.80;;
26102;SDS011;32703;49.182;9.042;2022-08-02T05:21:05;2.83;;;2.08;;
26102;SDS011;32703;49.182;9.042;2022-08-02T05:23:31;2.10;;;1.45;;
26102;SDS011;32703;49.182;9.042;2022-08-02T05:25:56;2.58;;;1.55;;
26102;SDS011;32703;49.182;9.042;2022-08-02T05:28:22;2.50;;;1.60;;
26102;SDS011;32703;49.182;9.042;2022-08-02T05:30:49;3.65;;;2.10;;
26102;SDS011;32703;49.182;9.042;2022-08-02T05:33:14;2.92;;;1.70;;
26102;SDS011;32703;49.182;9.042;2022-08-02T05:35:40;3.13;;;1.92;;
26102;SDS011;32703;49.182;9.042;2022-08-02T05:38:05;2.25;;;1.85;;
26102;SDS011;32703;49.182;9.042;2022-08-02T05:40:31;3.08;;;1.65;;
26102;SDS011;32703;49.182;9.042;2022-08-02T05:42:57;4.22;;;2.15;;
26102;SDS011;32703;49.182;9.042;2022-08-02T05:45:22;2.55;;;1.67;;
26102;SDS011;32703;49.182;9.042;2022-08-02T05:47:48;3.08;;;2.05;;
26102;SDS011;32703;49.182;9.042;2022-08-02T05:50:13;2.88;;;1.60;;
26102;SDS011;32703;49.182;9.042;2022-08-02T05:55:11;3.45;;;1.75;;
26102;SDS011;32703;49.182;9.042;2022-08-02T05:57:49;2.20;;;1.67;;
26102;SDS011;32703;49.182;9.042;2022-08-02T06:00:29;2.72;;;1.67;;
26102;SDS011;32703;49.182;9.042;2022-08-02T06:05:46;3.20;;;1.80;;
26102;SDS011;32703;49.182;9.042;2022-08-02T06:08:26;2.20;;;1.40;;
26102;SDS011;32703;49.182;9.042;2022-08-02T06:11:02;2.45;;;1.48;;
26102;SDS011;32703;49.182;9.042;2022-08-02T06:13:30;2.30;;;1.63;;
26102;SDS011;32703;49.182;9.042;2022-08-02T06:15:57;2.15;;;1.58;;
26102;SDS011;32703;49.182;9.042;2022-08-02T06:18:25;3.50;;;1.73;;
26102;SDS011;32703;49.182;9.042;2022-08-02T06:20:52;3.60;;;1.65;;
26102;SDS011;32703;49.182;9.042;2022-08-02T06:23:24;3.25;;;1.90;;
26102;SDS011;32703;49.182;9.042;2022-08-02T06:25:50;2.83;;;1.70;;
26102;SDS011;32703;49.182;9.042;2022-08-02T06:28:18;2.22;;;1.40;;
26102;SDS011;32703;49.182;9.042;2022-08-02T06:30:44;2.40;;;1.70;;
26102;SDS011;32703;49.182;9.042;2022-08-02T06:33:10;2.53;;;2.05;;
26102;SDS011;32703;49.182;9.042;2022-08-02T06:38:27;3.85;;;2.00;;
26102;SDS011;32703;49.182;9.042;2022-08-02T06:41:02;2.72;;;1.55;;
26102;SDS011;32703;49.182;9.042;2022-08-02T06:46:07;2.22;;;1.50;;
26102;SDS011;32703;49.182;9.042;2022-08-02T06:48:33;2.78;;;1.60;;
26102;SDS011;32703;49.182;9.042;2022-08-02T06:51:00;2.80;;;1.40;;
26102;SDS011;32703;49.182;9.042;2022-08-02T06:53:27;1.65;;;1.30;;
26102;SDS011;32703;49.182;9.042;2022-08-02T06:55:52;3.88;;;1.83;;
26102;SDS011;32703;49.182;9.042;2022-08-02T06:58:18;2.42;;;1.52;;
26102;SDS011;32703;49.182;9.042;2022-08-02T07:00:44;2.72;;;1.35;;
26102;SDS011;32703;49.182;9.042;2022-08-02T07:03:09;3.85;;;1.80;;
26102;SDS011;32703;49.182;9.042;2022-08-02T07:05:35;1.88;;;1.40;;
26102;SDS011;32703;49.182;9.042;2022-08-02T07:08:01;1.85;;;1.45;;
26102;SDS011;32703;49.182;9.042;2022-08-02T07:10:27;1.58;;;1.35;;
26102;SDS011;32703;49.182;9.042;2022-08-02T07:12:52;1.80;;;1.50;;
26102;SDS011;32703;49.182;9.042;2022-08-02T07:15:18;2.60;;;1.70;;
26102;SDS011;32703;49.182;9.042;2022-08-02T07:17:44;2.40;;;1.50;;
26102;SDS011;32703;49.182;9.042;2022-08-02T07:20:09;2.17;;;1.52;;
26102;SDS011;32703;49.182;9.042;2022-08-02T07:22:35;1.58;;;1.45;;
26102;SDS011;32703;49.182;9.042;2022-08-02T07:25:01;2.17;;;1.35;;
26102;SDS011;32703;49.182;9.042;2022-08-02T07:27:28;1.77;;;1.30;;
26102;SDS011;32703;49.182;9.042;2022-08-02T07:29:54;1.20;;;0.90;;
26102;SDS011;32703;49.182;9.042;2022-08-02T07:32:21;2.35;;;1.50;;
26102;SDS011;32703;49.182;9.042;2022-08-02T07:34:48;2.35;;;1.45;;
26102;SDS011;32703;49.182;9.042;2022-08-02T07:37:14;2.50;;;1.35;;
26102;SDS011;32703;49.182;9.042;2022-08-02T07:39:40;1.30;;;1.10;;
26102;SDS011;32703;49.182;9.042;2022-08-02T07:42:05;1.48;;;1.27;;
26102;SDS011;32703;49.182;9.042;2022-08-02T07:44:31;2.05;;;1.17;;
26102;SDS011;32703;49.182;9.042;2022-08-02T07:47:02;1.30;;;1.10;;
26102;SDS011;32703;49.182;9.042;2022-08-02T07:49:28;3.33;;;0.98;;
26102;SDS011;32703;49.182;9.042;2022-08-02T07:51:54;1.60;;;1.20;;
26102;SDS011;32703;49.182;9.042;2022-08-02T07:54:21;1.65;;;1.15;;
26102;SDS011;32703;49.182;9.042;2022-08-02T07:56:47;1.10;;;0.90;;
26102;SDS011;32703;49.182;9.042;2022-08-02T07:59:13;1.73;;;1.27;;
26102;SDS011;32703;49.182;9.042;2022-08-02T08:01:38;1.73;;;1.27;;
26102;SDS011;32703;49.182;9.042;2022-08-02T08:04:04;1.30;;;1.20;;
26102;SDS011;32703;49.182;9.042;2022-08-02T08:06:30;2.42;;;1.35;;
26102;SDS011;32703;49.182;9.042;2022-08-02T08:08:56;1.73;;;1.40;;
26102;SDS011;32703;49.182;9.042;2022-08-02T08:11:22;2.03;;;1.13;;
26102;SDS011;32703;49.182;9.042;2022-08-02T08:13:48;1.65;;;1.27;;
26102;SDS011;32703;49.182;9.042;2022-08-02T08:16:14;1.67;;;1.00;;
26102;SDS011;32703;49.182;9.042;2022-08-02T08:18:40;1.33;;;1.10;;
26102;SDS011;32703;49.182;9.042;2022-08-02T08:21:06;1.52;;;1.20;;
26102;SDS011;32703;49.182;9.042;2022-08-02T08:23:31;2.60;;;1.27;;
26102;SDS011;32703;49.182;9.042;2022-08-02T08:25:57;1.80;;;1.27;;
26102;SDS011;32703;49.182;9.042;2022-08-02T08:28:22;1.33;;;1.15;;
26102;SDS011;32703;49.182;9.042;2022-08-02T08:30:48;1.50;;;1.10;;
26102;SDS011;32703;49.182;9.042;2022-08-02T08:33:14;1.73;;;1.25;;
26102;SDS011;32703;49.182;9.042;2022-08-02T08:35:40;1.75;;;1.20;;
26102;SDS011;32703;49.182;9.042;2022-08-02T08:38:05;2.08;;;1.60;;
26102;SDS011;32703;49.182;9.042;2022-08-02T08:40:32;1.17;;;1.08;;
26102;SDS011;32703;49.182;9.042;2022-08-02T08:42:58;1.88;;;1.20;;
26102;SDS011;32703;49.182;9.042;2022-08-02T08:45:23;1.35;;;1.20;;
26102;SDS011;32703;49.182;9.042;2022-08-02T08:48:11;1.52;;;1.27;;
26102;SDS011;32703;49.182;9.042;2022-08-02T08:51:07;1.50;;;1.17;;
26102;SDS011;32703;49.182;9.042;2022-08-02T08:53:43;1.58;;;1.30;;
26102;SDS011;32703;49.182;9.042;2022-08-02T08:56:12;1.50;;;0.98;;
26102;SDS011;32703;49.182;9.042;2022-08-02T08:58:40;1.33;;;1.10;;
26102;SDS011;32703;49.182;9.042;2022-08-02T09:01:06;1.42;;;1.20;;
26102;SDS011;32703;49.182;9.042;2022-08-02T09:03:33;2.42;;;1.40;;
26102;SDS011;32703;49.182;9.042;2022-08-02T09:05:58;1.85;;;1.25;;
26102;SDS011;32703;49.182;9.042;2022-08-02T09:08:24;1.52;;;1.05;;
26102;SDS011;32703;49.182;9.042;2022-08-02T09:10:50;1.95;;;1.20;;
26102;SDS011;32703;49.182;9.042;2022-08-02T09:13:17;1.20;;;1.10;;
26102;SDS011;32703;49.182;9.042;2022-08-02T09:15:44;1.27;;;1.17;;
26102;SDS011;32703;49.182;9.042;2022-08-02T09:18:16;1.42;;;1.08;;
26102;SDS011;32703;49.182;9.042;2022-08-02T09:20:52;1.25;;;1.02;;
26102;SDS011;32703;49.182;9.042;2022-08-02T09:23:21;1.33;;;1.10;;
26102;SDS011;32703;49.182;9.042;2022-08-02T09:25:57;1.30;;;1.13;;
26102;SDS011;32703;49.182;9.042;2022-08-02T09:28:27;1.13;;;1.00;;
26102;SDS011;32703;49.182;9.042;2022-08-02T09:31:11;1.63;;;1.17;;
26102;SDS011;32703;49.182;9.042;2022-08-02T09:33:54;1.02;;;0.90;;
26102;SDS011;32703;49.182;9.042;2022-08-02T09:36:23;1.20;;;1.10;;
26102;SDS011;32703;49.182;9.042;2022-08-02T09:38:54;1.40;;;1.20;;
26102;SDS011;32703;49.182;9.042;2022-08-02T09:41:37;1.80;;;1.50;;
26102;SDS011;32703;49.182;9.042;2022-08-02T09:44:06;1.20;;;1.05;;
26102;SDS011;32703;49.182;9.042;2022-08-02T09:46:34;1.60;;;1.23;;
26102;SDS011;32703;49.182;9.042;2022-08-02T09:49:02;1.52;;;1.25;;
26102;SDS011;32703;49.182;9.042;2022-08-02T09:51:33;1.50;;;1.40;;
26102;SDS011;32703;49.182;9.042;2022-08-02T09:54:10;1.30;;;1.20;;
26102;SDS011;32703;49.182;9.042;2022-08-02T09:59:11;2.45;;;1.40;;
26102;SDS011;32703;49.182;9.042;2022-08-02T10:01:38;1.42;;;1.20;;
26102;SDS011;32703;49.182;9.042;2022-08-02T10:04:05;2.22;;;1.30;;
26102;SDS011;32703;49.182;9.042;2022-08-02T10:06:34;1.75;;;1.10;;
26102;SDS011;32703;49.182;9.042;2022-08-02T10:09:01;1.50;;;1.17;;
26102;SDS011;32703;49.182;9.042;2022-08-02T10:11:27;2.88;;;1.33;;
26102;SDS011;32703;49.182;9.042;2022-08-02T10:13:53;2.10;;;1.30;;
26102;SDS011;32703;49.182;9.042;2022-08-02T10:16:20;1.85;;;1.38;;
26102;SDS011;32703;49.182;9.042;2022-08-02T10:18:50;1.48;;;1.35;;
26102;SDS011;32703;49.182;9.042;2022-08-02T10:24:08;1.20;;;1.10;;
26102;SDS011;32703;49.182;9.042;2022-08-02T10:26:36;2.95;;;1.40;;
26102;SDS011;32703;49.182;9.042;2022-08-02T10:29:04;1.27;;;1.17;;
26102;SDS011;32703;49.182;9.042;2022-08-02T10:31:33;2.20;;;1.50;;
26102;SDS011;32703;49.182;9.042;2022-08-02T10:34:03;1.20;;;1.10;;
26102;SDS011;32703;49.182;9.042;2022-08-02T10:36:34;1.70;;;1.30;;
26102;SDS011;32703;49.182;9.042;2022-08-02T10:39:03;2.60;;;1.40;;
26102;SDS011;32703;49.182;9.042;2022-08-02T11:05:05;2.38;;;1.30;;
26102;SDS011;32703;49.182;9.042;2022-08-02T11:07:36;1.42;;;1.30;;
26102;SDS011;32703;49.182;9.042;2022-08-02T11:15:52;2.30;;;1.30;;
26102;SDS011;32703;49.182;9.042;2022-08-02T11:24:24;1.52;;;1.20;;
26102;SDS011;32703;49.182;9.042;2022-08-02T11:26:52;1.38;;;1.20;;
26102;SDS011;32703;49.182;9.042;2022-08-02T11:29:21;1.52;;;1.42;;
26102;SDS011;32703;49.182;9.042;2022-08-02T11:31:55;1.85;;;1.30;;
26102;SDS011;32703;49.182;9.042;2022-08-02T11:34:23;1.73;;;1.33;;
26102;SDS011;32703;49.182;9.042;2022-08-02T11:36:50;1.33;;;1.15;;
26102;SDS011;32703;49.182;9.042;2022-08-02T11:39:17;2.05;;;1.52;;
26102;SDS011;32703;49.182;9.042;2022-08-02T11:41:52;1.50;;;1.30;;
26102;SDS011;32703;49.182;9.042;2022-08-02T11:44:22;1.60;;;1.20;;
26102;SDS011;32703;49.182;9.042;2022-08-02T11:46:59;1.67;;;1.38;;
26102;SDS011;32703;49.182;9.042;2022-08-02T11:49:25;2.92;;;1.20;;
26102;SDS011;32703;49.182;9.042;2022-08-02T11:54:23;1.20;;;1.10;;
26102;SDS011;32703;49.182;9.042;2022-08-02T11:56:50;1.30;;;1.20;;
26102;SDS011;32703;49.182;9.042;2022-08-02T11:59:16;1.85;;;1.40;;
26102;SDS011;32703;49.182;9.042;2022-08-02T12:01:41;1.58;;;1.30;;
26102;SDS011;32703;49.182;9.042;2022-08-02T12:04:08;1.63;;;1.33;;
26102;SDS011;32703;49.182;9.042;2022-08-02T12:06:34;1.77;;;1.30;;
26102;SDS011;32703;49.182;9.042;2022-08-02T12:11:33;1.80;;;1.27;;
26102;SDS011;32703;49.182;9.042;2022-08-02T12:14:02;3.05;;;1.15;;
26102;SDS011;32703;49.182;9.042;2022-08-02T12:16:33;1.30;;;1.20;;
26102;SDS011;32703;49.182;9.042;2022-08-02T12:19:18;1.65;;;1.50;;
26102;SDS011;32703;49.182;9.042;2022-08-02T12:24:40;1.73;;;1.38;;
26102;SDS011;32703;49.182;9.042;2022-08-02T12:27:07;2.80;;;1.40;;
26102;SDS011;32703;49.182;9.042;2022-08-02T12:29:39;1.42;;;1.20;;
26102;SDS011;32703;49.182;9.042;2022-08-02T12:32:06;1.50;;;1.40;;
26102;SDS011;32703;49.182;9.042;2022-08-02T12:34:32;3.53;;;1.20;;
26102;SDS011;32703;49.182;9.042;2022-08-02T12:37:00;1.52;;;1.42;;
26102;SDS011;32703;49.182;9.042;2022-08-02T12:39:40;1.67;;;1.38;;
26102;SDS011;32703;49.182;9.042;2022-08-02T12:42:09;1.77;;;1.30;;
26102;SDS011;32703;49.182;9.042;2022-08-02T12:44:37;3.80;;;1.42;;
26102;SDS011;32703;49.182;9.042;2022-08-02T12:47:14;1.27;;;1.17;;
26102;SDS011;32703;49.182;9.042;2022-08-02T12:49:40;1.33;;;1.20;;
26102;SDS011;32703;49.182;9.042;2022-08-02T12:52:19;2.03;;;1.33;;
26102;SDS011;32703;49.182;9.042;2022-08-02T12:54:45;1.83;;;1.25;;
26102;SDS011;32703;49.182;9.042;2022-08-02T12:57:13;2.65;;;1.27;;
26102;SDS011;32703;49.182;9.042;2022-08-02T12:59:41;1.60;;;1.45;;
26102;SDS011;32703;49.182;9.042;2022-08-02T13:02:10;1.30;;;1.20;;
26102;SDS011;32703;49.182;9.042;2022-08-02T13:04:36;1.83;;;1.35;;
26102;SDS011;32703;49.182;9.042;2022-08-02T13:07:02;1.30;;;1.20;;
26102;SDS011;32703;49.182;9.042;2022-08-02T13:09:34;1.90;;;1.15;;
26102;SDS011;32703;49.182;9.042;2022-08-02T13:12:04;2.08;;;1.58;;
26102;SDS011;32703;49.182;9.042;2022-08-02T13:14:31;1.23;;;1.05;;
26102;SDS011;32703;49.182;9.042;2022-08-02T13:16:57;1.20;;;1.10;;
26102;SDS011;32703;49.182;9.042;2022-08-02T13:19:23;1.30;;;1.20;;
26102;SDS011;32703;49.182;9.042;2022-08-02T13:21:50;1.38;;;1.27;;
26102;SDS011;32703;49.182;9.042;2022-08-02T13:24:16;1.10;;;1.00;;
26102;SDS011;32703;49.182;9.042;2022-08-02T13:26:42;1.58;;;1.30;;
26102;SDS011;32703;49.182;9.042;2022-08-02T13:29:08;3.63;;;1.20;;
26102;SDS011;32703;49.182;9.042;2022-08-02T13:31:37;1.10;;;1.00;;
26102;SDS011;32703;49.182;9.042;2022-08-02T13:34:07;1.20;;;1.00;;
26102;SDS011;32703;49.182;9.042;2022-08-02T13:36:33;2.75;;;1.23;;
26102;SDS011;32703;49.182;9.042;2022-08-02T13:39:03;3.83;;;1.10;;
26102;SDS011;32703;49.182;9.042;2022-08-02T13:41:32;2.35;;;0.93;;
26102;SDS011;32703;49.182;9.042;2022-08-02T13:43:58;1.38;;;1.00;;
26102;SDS011;32703;49.182;9.042;2022-08-02T13:46:23;2.60;;;1.10;;
26102;SDS011;32703;49.182;9.042;2022-08-02T13:48:49;1.25;;;1.00;;
26102;SDS011;32703;49.182;9.042;2022-08-02T13:51:15;1.10;;;0.88;;
26102;SDS011;32703;49.182;9.042;2022-08-02T13:53:40;1.40;;;1.20;;
26102;SDS011;32703;49.182;9.042;2022-08-02T13:56:06;1.42;;;1.00;;
26102;SDS011;32703;49.182;9.042;2022-08-02T13:58:32;1.45;;;1.23;;
26102;SDS011;32703;49.182;9.042;2022-08-02T14:00:57;1.38;;;1.10;;
26102;SDS011;32703;49.182;9.042;2022-08-02T14:03:23;1.30;;;0.90;;
26102;SDS011;32703;49.182;9.042;2022-08-02T14:05:49;3.13;;;1.15;;
26102;SDS011;32703;49.182;9.042;2022-08-02T14:08:16;2.22;;;1.30;;
26102;SDS011;32703;49.182;9.042;2022-08-02T14:10:42;1.17;;;1.05;;
26102;SDS011;32703;49.182;9.042;2022-08-02T14:13:10;1.60;;;1.00;;
26102;SDS011;32703;49.182;9.042;2022-08-02T14:15:35;1.98;;;1.00;;
26102;SDS011;32703;49.182;9.042;2022-08-02T14:18:01;1.50;;;0.98;;
26102;SDS011;32703;49.182;9.042;2022-08-02T14:20:27;1.50;;;1.17;;
26102;SDS011;32703;49.182;9.042;2022-08-02T14:22:52;1.85;;;1.30;;
26102;SDS011;32703;49.182;9.042;2022-08-02T14:25:18;1.30;;;1.10;;
26102;SDS011;32703;49.182;9.042;2022-08-02T14:27:44;1.60;;;1.00;;
26102;SDS011;32703;49.182;9.042;2022-08-02T14:30:09;1.45;;;1.00;;
26102;SDS011;32703;49.182;9.042;2022-08-02T14:32:35;1.42;;;1.00;;
26102;SDS011;32703;49.182;9.042;2022-08-02T14:35:01;1.27;;;1.00;;
26102;SDS011;32703;49.182;9.042;2022-08-02T14:37:26;1.05;;;0.90;;
26102;SDS011;32703;49.182;9.042;2022-08-02T14:39:52;1.60;;;1.10;;
26102;SDS011;32703;49.182;9.042;2022-08-02T14:42:18;1.20;;;1.10;;
26102;SDS011;32703;49.182;9.042;2022-08-02T14:44:43;1.65;;;1.20;;
26102;SDS011;32703;49.182;9.042;2022-08-02T14:47:09;1.70;;;1.23;;
26102;SDS011;32703;49.182;9.042;2022-08-02T14:49:34;1.05;;;0.95;;
26102;SDS011;32703;49.182;9.042;2022-08-02T14:52:00;3.60;;;1.17;;
26102;SDS011;32703;49.182;9.042;2022-08-02T14:54:26;1.20;;;1.10;;
26102;SDS011;32703;49.182;9.042;2022-08-02T14:56:55;1.27;;;1.00;;
26102;SDS011;32703;49.182;9.042;2022-08-02T14:59:20;1.75;;;1.10;;
26102;SDS011;32703;49.182;9.042;2022-08-02T15:01:46;1.90;;;1.27;;
26102;SDS011;32703;49.182;9.042;2022-08-02T15:04:12;2.13;;;1.00;;
26102;SDS011;32703;49.182;9.042;2022-08-02T15:06:37;1.55;;;1.30;;
26102;SDS011;32703;49.182;9.042;2022-08-02T15:09:03;1.60;;;1.40;;
26102;SDS011;32703;49.182;9.042;2022-08-02T15:11:28;1.10;;;1.00;;
26102;SDS011;32703;49.182;9.042;2022-08-02T15:13:54;1.63;;;1.33;;
26102;SDS011;32703;49.182;9.042;2022-08-02T15:16:22;1.42;;;1.05;;
26102;SDS011;32703;49.182;9.042;2022-08-02T15:18:48;1.77;;;1.40;;
26102;SDS011;32703;49.182;9.042;2022-08-02T15:21:14;1.48;;;1.20;;
26102;SDS011;32703;49.182;9.042;2022-08-02T15:23:39;1.45;;;1.20;;
26102;SDS011;32703;49.182;9.042;2022-08-02T15:26:05;1.10;;;0.95;;
26102;SDS011;32703;49.182;9.042;2022-08-02T15:28:31;1.35;;;1.10;;
26102;SDS011;32703;49.182;9.042;2022-08-02T15:31:04;1.70;;;1.20;;
26102;SDS011;32703;49.182;9.042;2022-08-02T15:33:30;1.10;;;1.00;;
26102;SDS011;32703;49.182;9.042;2022-08-02T15:35:55;1.70;;;1.10;;
26102;SDS011;32703;49.182;9.042;2022-08-02T15:38:21;1.10;;;1.00;;
26102;SDS011;32703;49.182;9.042;2022-08-02T15:40:47;1.55;;;1.08;;
26102;SDS011;32703;49.182;9.042;2022-08-02T15:43:13;1.55;;;1.10;;
26102;SDS011;32703;49.182;9.042;2022-08-02T15:45:39;1.75;;;1.45;;
26102;SDS011;32703;49.182;9.042;2022-08-02T15:48:04;1.20;;;1.10;;
26102;SDS011;32703;49.182;9.042;2022-08-02T15:50:31;1.35;;;1.00;;
26102;SDS011;32703;49.182;9.042;2022-08-02T15:52:56;1.52;;;1.20;;
26102;SDS011;32703;49.182;9.042;2022-08-02T15:55:22;1.42;;;1.10;;
26102;SDS011;32703;49.182;9.042;2022-08-02T15:57:53;1.80;;;1.20;;
26102;SDS011;32703;49.182;9.042;2022-08-02T16:00:19;1.33;;;1.10;;